createdAt,value
2022-10-17T00:00:58.965Z,12.70
2022-10-17T00:03:25.701Z,12.70
2022-10-17T00:05:52.450Z,12.70
2022-10-17T00:08:20.188Z,12.70
2022-10-17T00:11:00.914Z,12.70
2022-10-17T00:13:28.999Z,12.70
2022-10-17T00:15:55.955Z,12.70
2022-10-17T00:18:23.084Z,12.70
2022-10-17T00:20:50.745Z,12.70
2022-10-17T00:23:18.251Z,12.70
2022-10-17T00:25:45.657Z,12.68
2022-10-17T00:28:15.061Z,12.68
2022-10-17T00:30:42.037Z,12.62
2022-10-17T00:33:08.845Z,12.60
2022-10-17T00:35:35.782Z,12.60
2022-10-17T00:38:02.655Z,12.50
2022-10-17T00:40:29.453Z,12.40
2022-10-17T00:42:56.181Z,12.40
2022-10-17T00:45:32.192Z,12.32
2022-10-17T00:48:05.624Z,12.32
2022-10-17T00:50:33.835Z,12.40
2022-10-17T00:53:04.456Z,12.40
2022-10-17T00:55:42.360Z,12.40
2022-10-17T00:58:09.337Z,12.40
2022-10-17T01:00:37.095Z,12.46
2022-10-17T01:03:04.414Z,12.50
2022-10-17T01:05:31.349Z,12.54
2022-10-17T01:07:58.324Z,12.60
2022-10-17T01:10:39.816Z,12.60
2022-10-17T01:13:21.985Z,12.60
2022-10-17T01:16:30.153Z,12.66
2022-10-17T01:19:36.411Z,12.70
2022-10-17T01:22:14.108Z,12.70
2022-10-17T01:25:11.620Z,12.70
2022-10-17T01:28:07.200Z,12.70
2022-10-17T01:31:18.158Z,12.60
2022-10-17T01:33:59.978Z,12.50
2022-10-17T01:37:10.405Z,12.50
2022-10-17T01:39:50.166Z,12.48
2022-10-17T01:42:38.792Z,12.50
2022-10-17T01:45:16.704Z,12.48
2022-10-17T01:47:47.825Z,12.48
2022-10-17T01:50:24.138Z,12.50
2022-10-17T01:53:02.641Z,12.50
2022-10-17T01:55:36.672Z,12.50
2022-10-17T01:58:31.117Z,12.50
2022-10-17T02:01:02.225Z,12.50
2022-10-17T02:03:34.545Z,12.50
2022-10-17T02:06:02.437Z,12.50
2022-10-17T02:08:44.668Z,12.50
2022-10-17T02:11:17.889Z,12.46
2022-10-17T02:14:22.008Z,12.50
2022-10-17T02:17:23.800Z,12.50
2022-10-17T02:20:25.140Z,12.42
2022-10-17T02:22:58.745Z,12.40
2022-10-17T02:25:58.116Z,12.40
2022-10-17T02:28:57.964Z,12.40
2022-10-17T02:31:38.710Z,12.40
2022-10-17T02:34:28.104Z,12.32
2022-10-17T02:37:00.555Z,12.32
2022-10-17T02:39:30.515Z,12.30
2022-10-17T02:42:03.531Z,12.30
2022-10-17T02:44:33.501Z,12.30
2022-10-17T02:47:26.860Z,12.30
2022-10-17T02:49:56.840Z,12.30
2022-10-17T02:52:59.392Z,12.30
2022-10-17T02:55:34.491Z,12.30
2022-10-17T02:58:31.848Z,12.30
2022-10-17T03:00:59.530Z,12.24
2022-10-17T03:03:30.006Z,12.20
2022-10-17T03:06:00.136Z,12.18
2022-10-17T03:08:27.167Z,12.12
2022-10-17T03:10:55.688Z,12.10
2022-10-17T03:13:22.857Z,12.10
2022-10-17T03:15:49.857Z,12.10
2022-10-17T03:18:17.105Z,12.06
2022-10-17T03:20:44.368Z,12.00
2022-10-17T03:23:11.188Z,12.00
2022-10-17T03:25:38.172Z,12.00
2022-10-17T03:28:05.712Z,12.00
2022-10-17T03:30:33.597Z,12.00
2022-10-17T03:33:01.054Z,11.96
2022-10-17T03:35:27.903Z,11.90
2022-10-17T03:37:58.322Z,11.90
2022-10-17T03:40:26.291Z,11.90
2022-10-17T03:42:53.104Z,11.80
2022-10-17T03:45:19.962Z,11.80
2022-10-17T03:47:46.945Z,11.80
2022-10-17T03:50:15.081Z,11.70
2022-10-17T03:52:42.224Z,11.70
2022-10-17T03:55:09.280Z,11.70
2022-10-17T03:57:37.157Z,11.62
2022-10-17T04:00:06.153Z,11.60
2022-10-17T04:02:41.593Z,11.60
2022-10-17T04:05:10.792Z,11.50
2022-10-17T04:07:37.841Z,11.50
2022-10-17T04:10:05.684Z,11.50
2022-10-17T04:12:32.751Z,11.50
2022-10-17T04:14:59.886Z,11.50
2022-10-17T04:17:27.255Z,11.50
2022-10-17T04:19:54.201Z,11.50
2022-10-17T04:22:22.783Z,11.48
2022-10-17T04:24:49.549Z,11.40
2022-10-17T04:27:26.173Z,11.40
2022-10-17T04:29:53.660Z,11.40
2022-10-17T04:32:23.469Z,11.38
2022-10-17T04:34:56.072Z,11.30
2022-10-17T04:37:23.273Z,11.30
2022-10-17T04:39:51.365Z,11.30
2022-10-17T04:42:18.205Z,11.30
2022-10-17T04:44:45.447Z,11.20
2022-10-17T04:47:12.846Z,11.20
2022-10-17T04:52:11.489Z,11.20
2022-10-17T04:54:45.934Z,11.20
2022-10-17T04:57:13.943Z,11.20
2022-10-17T04:59:41.869Z,11.20
2022-10-17T05:02:27.416Z,11.20
2022-10-17T05:04:55.244Z,11.20
2022-10-17T05:07:22.166Z,11.20
2022-10-17T05:10:10.507Z,11.16
2022-10-17T05:12:37.393Z,11.12
2022-10-17T05:15:06.517Z,11.10
2022-10-17T05:17:33.696Z,11.10
2022-10-17T05:20:00.642Z,11.10
2022-10-17T05:22:28.458Z,11.10
2022-10-17T05:24:55.480Z,11.10
2022-10-17T05:27:22.265Z,11.10
2022-10-17T05:29:49.065Z,11.10
2022-10-17T05:32:23.661Z,11.10
2022-10-17T05:34:50.505Z,11.10
2022-10-17T05:37:17.612Z,11.10
2022-10-17T05:39:50.709Z,11.10
2022-10-17T05:42:18.966Z,11.10
2022-10-17T05:44:45.942Z,11.10
2022-10-17T05:47:13.416Z,11.10
2022-10-17T05:49:47.329Z,11.10
2022-10-17T05:52:18.625Z,11.20
2022-10-17T05:55:04.017Z,11.20
2022-10-17T05:57:31.641Z,11.20
2022-10-17T05:59:59.267Z,11.30
2022-10-17T06:02:27.109Z,11.30
2022-10-17T06:04:54.898Z,11.30
2022-10-17T06:07:23.072Z,11.32
2022-10-17T06:09:50.558Z,11.40
2022-10-17T06:12:17.990Z,11.40
2022-10-17T06:14:45.428Z,11.50
2022-10-17T06:17:15.978Z,11.52
2022-10-17T06:19:44.964Z,11.60
2022-10-17T06:22:14.782Z,11.70
2022-10-17T06:24:42.743Z,11.70
2022-10-17T06:27:11.911Z,11.80
2022-10-17T06:29:40.782Z,11.90
2022-10-17T06:32:09.967Z,12.00
2022-10-17T06:34:40.410Z,12.10
2022-10-17T06:37:07.282Z,12.20
2022-10-17T06:39:36.592Z,12.28
2022-10-17T06:42:07.740Z,12.40
2022-10-17T06:44:57.622Z,12.60
2022-10-17T06:47:40.757Z,12.80
2022-10-17T06:50:30.718Z,12.80
2022-10-17T06:53:12.216Z,12.80
2022-10-17T06:56:09.417Z,12.90
2022-10-17T06:58:54.865Z,12.98
2022-10-17T07:01:46.272Z,13.10
2022-10-17T07:04:15.241Z,13.10
2022-10-17T07:06:42.408Z,13.18
2022-10-17T07:09:15.434Z,13.20
2022-10-17T07:11:42.283Z,13.30
2022-10-17T07:14:09.118Z,13.40
2022-10-17T07:16:36.141Z,13.40
2022-10-17T07:19:09.645Z,13.50
2022-10-17T07:21:39.371Z,13.60
2022-10-17T07:24:08.019Z,13.70
2022-10-17T07:26:35.067Z,13.72
2022-10-17T07:29:02.473Z,13.80
2022-10-17T07:31:40.111Z,13.90
2022-10-17T07:34:08.057Z,13.92
2022-10-17T07:36:34.922Z,14.00
2022-10-17T07:39:04.023Z,14.00
2022-10-17T07:41:32.131Z,14.00
2022-10-17T07:43:59.038Z,14.10
2022-10-17T07:46:31.927Z,14.10
2022-10-17T07:48:59.383Z,14.10
2022-10-17T07:51:27.030Z,14.18
2022-10-17T07:53:53.986Z,14.20
2022-10-17T07:56:24.720Z,14.20
2022-10-17T07:58:54.406Z,14.30
2022-10-17T08:01:21.989Z,14.30
2022-10-17T08:03:48.917Z,14.32
2022-10-17T08:06:15.880Z,14.40
2022-10-17T08:08:44.067Z,14.40
2022-10-17T08:11:14.378Z,14.42
2022-10-17T08:13:42.471Z,14.50
2022-10-17T08:16:12.752Z,14.50
2022-10-17T08:18:42.786Z,14.50
2022-10-17T08:21:13.649Z,14.50
2022-10-17T08:23:42.082Z,14.50
2022-10-17T08:26:13.517Z,14.50
2022-10-17T08:28:41.065Z,14.50
2022-10-17T08:31:15.887Z,14.60
2022-10-17T08:33:43.093Z,14.60
2022-10-17T08:36:12.398Z,14.60
2022-10-17T08:38:43.027Z,14.60
2022-10-17T08:41:52.238Z,14.50
2022-10-17T08:44:50.539Z,14.68
2022-10-17T08:47:34.471Z,14.70
2022-10-17T08:50:11.947Z,14.80
2022-10-17T08:52:49.757Z,14.94
2022-10-17T08:55:31.278Z,15.00
2022-10-17T08:57:59.440Z,15.10
2022-10-17T09:00:31.128Z,15.14
2022-10-17T09:03:07.152Z,15.20
2022-10-17T09:05:56.110Z,15.30
2022-10-17T09:08:35.721Z,15.40
2022-10-17T09:11:42.029Z,15.68
2022-10-17T09:14:26.727Z,15.90
2022-10-17T09:17:16.865Z,16.00
2022-10-17T09:19:53.471Z,16.20
2022-10-17T09:22:30.053Z,16.26
2022-10-17T09:25:09.412Z,16.24
2022-10-17T09:27:46.642Z,16.38
2022-10-17T09:30:45.288Z,16.40
2022-10-17T09:33:34.394Z,16.50
2022-10-17T09:36:09.817Z,16.54
2022-10-17T09:38:48.828Z,16.62
2022-10-17T09:44:30.380Z,16.64
2022-10-17T09:47:20.530Z,16.60
2022-10-17T09:49:49.713Z,16.60
2022-10-17T09:52:28.604Z,16.60
2022-10-17T09:55:50.436Z,16.70
2022-10-17T09:58:17.214Z,17.00
2022-10-17T10:00:47.626Z,17.10
2022-10-17T10:03:21.649Z,17.20
2022-10-17T10:06:05.089Z,17.40
2022-10-17T10:08:49.336Z,17.68
2022-10-17T10:11:18.146Z,17.80
2022-10-17T10:13:49.269Z,17.80
2022-10-17T10:16:50.652Z,17.80
2022-10-17T10:19:36.605Z,18.00
2022-10-17T10:22:31.236Z,18.10
2022-10-17T10:25:11.289Z,18.20
2022-10-17T10:27:41.550Z,18.30
2022-10-17T10:30:19.565Z,18.40
2022-10-17T10:32:49.149Z,18.50
2022-10-17T10:35:28.813Z,18.60
2022-10-17T10:37:59.690Z,18.62
2022-10-17T10:40:33.442Z,18.60
2022-10-17T10:43:05.331Z,18.50
2022-10-17T10:45:53.845Z,18.30
2022-10-17T10:48:52.182Z,18.00
2022-10-17T10:51:33.253Z,17.90
2022-10-17T10:54:16.381Z,17.70
2022-10-17T10:57:00.492Z,17.70
2022-10-17T10:59:41.186Z,17.60
2022-10-17T11:02:07.956Z,17.60
2022-10-17T11:04:47.530Z,17.52
2022-10-17T11:07:23.581Z,17.60
2022-10-17T11:10:17.873Z,17.60
2022-10-17T11:13:13.957Z,17.62
2022-10-17T11:15:51.648Z,17.60
2022-10-17T11:18:30.373Z,17.60
2022-10-17T11:21:16.658Z,17.60
2022-10-17T11:24:11.775Z,17.50
2022-10-17T11:27:00.702Z,17.50
2022-10-17T11:29:35.504Z,17.40
2022-10-17T11:32:11.392Z,17.42
2022-10-17T11:34:46.333Z,17.50
2022-10-17T11:37:21.876Z,17.50
2022-10-17T11:40:02.652Z,17.50
2022-10-17T11:42:38.910Z,17.50
2022-10-17T11:45:19.117Z,17.50
2022-10-17T11:47:58.927Z,17.46
2022-10-17T11:53:34.370Z,17.50
2022-10-17T11:56:02.719Z,17.60
2022-10-17T11:58:55.613Z,17.60
2022-10-17T12:01:57.127Z,17.70
2022-10-17T12:04:51.787Z,17.80
2022-10-17T12:07:58.758Z,17.94
2022-10-17T12:11:18.780Z,18.10
2022-10-17T12:13:54.521Z,18.20
2022-10-17T12:16:21.241Z,18.20
2022-10-17T12:19:10.789Z,18.28
2022-10-17T12:22:13.262Z,18.28
2022-10-17T12:24:44.654Z,18.20
2022-10-17T12:27:45.877Z,18.20
2022-10-17T12:30:12.827Z,18.12
2022-10-17T12:33:07.087Z,18.10
2022-10-17T12:35:38.302Z,18.10
2022-10-17T12:38:21.953Z,18.10
2022-10-17T12:40:52.519Z,18.10
2022-10-17T12:43:28.582Z,18.10
2022-10-17T12:45:58.470Z,18.10
2022-10-17T12:48:34.260Z,18.20
2022-10-17T12:51:37.332Z,18.20
2022-10-17T12:54:15.845Z,18.20
2022-10-17T12:56:47.797Z,18.30
2022-10-17T12:59:22.624Z,18.20
2022-10-17T13:01:55.394Z,18.20
2022-10-17T13:04:23.600Z,18.20
2022-10-17T13:06:57.619Z,18.28
2022-10-17T13:09:42.962Z,18.30
2022-10-17T13:12:19.070Z,18.40
2022-10-17T13:14:48.012Z,18.50
2022-10-17T13:17:30.836Z,18.50
2022-10-17T13:19:58.489Z,18.60
2022-10-17T13:22:32.902Z,18.70
2022-10-17T13:25:15.346Z,18.70
2022-10-17T13:27:43.453Z,18.80
2022-10-17T13:30:35.966Z,18.90
2022-10-17T13:33:04.117Z,18.90
2022-10-17T13:38:32.527Z,19.00
2022-10-17T13:41:29.980Z,19.08
2022-10-17T13:43:51.314Z,19.10
2022-10-17T13:46:38.343Z,19.10
2022-10-17T13:49:36.680Z,19.20
2022-10-17T13:52:07.644Z,19.24
2022-10-17T13:54:42.248Z,19.30
2022-10-17T13:57:26.560Z,19.30
2022-10-17T14:00:10.029Z,19.30
2022-10-17T14:02:41.999Z,19.40
2022-10-17T14:05:17.109Z,19.40
2022-10-17T14:08:12.075Z,19.40
2022-10-17T14:10:43.445Z,19.48
2022-10-17T14:13:27.482Z,19.48
2022-10-17T14:15:57.458Z,19.50
2022-10-17T14:18:35.702Z,19.56
2022-10-17T14:24:33.554Z,19.60
2022-10-17T14:27:00.725Z,19.60
2022-10-17T14:29:50.278Z,19.60
2022-10-17T14:32:19.974Z,19.60
2022-10-17T14:34:57.493Z,19.60
2022-10-17T14:37:34.662Z,19.60
2022-10-17T14:40:06.414Z,19.60
2022-10-17T14:42:40.593Z,19.58
2022-10-17T14:45:14.462Z,19.50
2022-10-17T14:47:44.128Z,19.50
2022-10-17T14:50:11.098Z,19.50
2022-10-17T14:52:39.099Z,19.40
2022-10-17T14:55:26.268Z,19.40
2022-10-17T14:57:53.436Z,19.40
2022-10-17T15:00:22.925Z,19.30
2022-10-17T15:02:52.621Z,19.30
2022-10-17T15:05:20.498Z,19.22
2022-10-17T15:07:47.457Z,19.20
2022-10-17T15:10:36.302Z,19.20
2022-10-17T15:13:38.542Z,19.14
2022-10-17T15:15:52.561Z,19.10
2022-10-17T15:18:19.995Z,19.10
2022-10-17T15:20:46.847Z,19.00
2022-10-17T15:23:13.680Z,19.00
2022-10-17T15:25:40.722Z,18.94
2022-10-17T15:28:08.117Z,18.90
2022-10-17T15:30:36.987Z,18.80
2022-10-17T15:33:04.153Z,18.78
2022-10-17T15:35:31.362Z,18.70
2022-10-17T15:37:58.429Z,18.60
2022-10-17T15:40:30.376Z,18.50
2022-10-17T15:42:57.726Z,18.50
2022-10-17T15:45:25.117Z,18.40
2022-10-17T15:47:56.942Z,18.28
2022-10-17T15:50:23.782Z,18.20
2022-10-17T15:52:51.245Z,18.10
2022-10-17T15:55:19.433Z,18.00
2022-10-17T15:57:48.985Z,17.94
2022-10-17T16:00:21.336Z,17.90
2022-10-17T16:02:49.932Z,17.80
2022-10-17T16:05:26.605Z,17.70
2022-10-17T16:07:54.724Z,17.60
2022-10-17T16:10:23.349Z,17.52
2022-10-17T16:12:50.779Z,17.50
2022-10-17T16:15:24.990Z,17.40
2022-10-17T16:17:56.413Z,17.30
2022-10-17T16:20:25.518Z,17.20
2022-10-17T16:22:59.983Z,17.10
2022-10-17T16:25:30.528Z,17.00
2022-10-17T16:28:00.477Z,16.90
2022-10-17T16:30:31.976Z,16.80
2022-10-17T16:32:59.908Z,16.70
2022-10-17T16:35:33.408Z,16.60
2022-10-17T16:38:06.489Z,16.50
2022-10-17T16:40:34.154Z,16.40
2022-10-17T16:43:00.949Z,16.30
2022-10-17T16:45:27.874Z,16.22
2022-10-17T16:47:55.300Z,16.18
2022-10-17T16:50:22.310Z,16.10
2022-10-17T16:52:49.182Z,16.00
2022-10-17T16:55:18.889Z,15.90
2022-10-17T16:57:46.144Z,15.90
2022-10-17T17:00:15.875Z,15.80
2022-10-17T17:02:43.313Z,15.70
2022-10-17T17:05:10.859Z,15.70
2022-10-17T17:07:37.694Z,15.68
2022-10-17T17:10:05.372Z,15.60
2022-10-17T17:12:35.507Z,15.58
2022-10-17T17:15:03.869Z,15.50
2022-10-17T17:17:48.751Z,15.50
2022-10-17T17:20:17.813Z,15.40
2022-10-17T17:22:44.613Z,15.40
2022-10-17T17:25:11.441Z,15.30
2022-10-17T17:27:38.248Z,15.30
2022-10-17T17:30:05.813Z,15.18
2022-10-17T17:32:33.113Z,15.14
2022-10-17T17:35:00.323Z,15.10
2022-10-17T17:37:27.410Z,15.00
2022-10-17T17:39:54.410Z,14.98
2022-10-17T17:42:21.249Z,14.90
2022-10-17T17:44:49.938Z,14.82
2022-10-17T17:47:16.788Z,14.80
2022-10-17T17:49:43.624Z,14.70
2022-10-17T17:52:10.570Z,14.70
2022-10-17T17:54:40.757Z,14.66
2022-10-17T17:57:08.073Z,14.60
2022-10-17T17:59:35.521Z,14.60
2022-10-17T18:02:03.047Z,14.54
2022-10-17T18:04:30.446Z,14.50
2022-10-17T18:06:57.441Z,14.50
2022-10-17T18:09:24.611Z,14.50
2022-10-17T18:11:52.075Z,14.40
2022-10-17T18:14:23.793Z,14.40
2022-10-17T18:16:51.724Z,14.40
2022-10-17T18:19:18.994Z,14.32
2022-10-17T18:21:48.803Z,14.30
2022-10-17T18:24:16.813Z,14.30
2022-10-17T18:26:44.347Z,14.30
2022-10-17T18:29:13.115Z,14.30
2022-10-17T18:31:40.031Z,14.30
2022-10-17T18:34:07.061Z,14.30
2022-10-17T18:36:35.632Z,14.22
2022-10-17T18:39:03.955Z,14.20
2022-10-17T18:41:32.019Z,14.20
2022-10-17T18:43:59.135Z,14.14
2022-10-17T18:46:41.055Z,14.10
2022-10-17T18:49:11.177Z,14.10
2022-10-17T18:51:38.593Z,14.10
2022-10-17T18:54:07.690Z,14.00
2022-10-17T18:56:35.267Z,14.00
2022-10-17T18:59:02.161Z,14.00
2022-10-17T19:01:29.257Z,13.92
2022-10-17T19:03:59.256Z,13.90
2022-10-17T19:06:32.001Z,13.90
2022-10-17T19:09:01.846Z,13.80
2022-10-17T19:11:31.576Z,13.80
2022-10-17T19:14:03.495Z,13.72
2022-10-17T19:16:35.718Z,13.70
2022-10-17T19:19:15.526Z,13.70
2022-10-17T19:21:43.380Z,13.70
2022-10-17T19:24:18.949Z,13.70
2022-10-17T19:26:50.358Z,13.70
2022-10-17T19:29:18.384Z,13.70
2022-10-17T19:31:46.734Z,13.70
2022-10-17T19:34:15.057Z,13.64
2022-10-17T19:36:42.499Z,13.60
2022-10-17T19:39:23.348Z,13.60
2022-10-17T19:41:50.206Z,13.60
2022-10-17T19:44:17.765Z,13.58
2022-10-17T19:46:46.906Z,13.50
2022-10-17T19:49:14.716Z,13.50
2022-10-17T19:51:41.778Z,13.50
2022-10-17T19:54:09.398Z,13.50
2022-10-17T19:56:38.292Z,13.50
2022-10-17T19:59:06.715Z,13.42
2022-10-17T20:01:39.055Z,13.40
2022-10-17T20:04:08.557Z,13.40
2022-10-17T20:06:35.777Z,13.40
2022-10-17T20:09:05.079Z,13.38
2022-10-17T20:11:32.430Z,13.32
2022-10-17T20:14:01.976Z,13.30
2022-10-17T20:16:32.598Z,13.30
2022-10-17T20:19:07.578Z,13.30
2022-10-17T20:21:36.777Z,13.30
2022-10-17T20:24:07.048Z,13.30
2022-10-17T20:26:39.629Z,13.20
2022-10-17T20:29:16.456Z,13.20
2022-10-17T20:31:45.911Z,13.20
2022-10-17T20:34:16.069Z,13.20
2022-10-17T20:36:43.613Z,13.20
2022-10-17T20:39:14.055Z,13.20
2022-10-17T20:41:41.800Z,13.18
2022-10-17T20:44:09.873Z,13.20
2022-10-17T20:46:38.477Z,13.20
2022-10-17T20:49:13.173Z,13.20
2022-10-17T20:51:40.122Z,13.20
2022-10-17T20:54:07.157Z,13.20
2022-10-17T20:56:35.620Z,13.16
2022-10-17T20:59:15.021Z,13.12
2022-10-17T21:01:42.404Z,13.10
2022-10-17T21:04:44.093Z,13.10
2022-10-17T21:06:56.978Z,13.10
2022-10-17T21:09:24.470Z,13.10
2022-10-17T21:11:55.147Z,13.00
2022-10-17T21:14:23.951Z,13.00
2022-10-17T21:16:52.386Z,12.98
2022-10-17T21:19:21.657Z,12.90
2022-10-17T21:21:48.537Z,12.90
2022-10-17T21:24:18.156Z,12.80
2022-10-17T21:26:47.826Z,12.80
2022-10-17T21:29:15.087Z,12.74
2022-10-17T21:31:44.681Z,12.70
2022-10-17T21:34:26.336Z,12.70
2022-10-17T21:36:53.316Z,12.70
2022-10-17T21:39:21.962Z,12.70
2022-10-17T21:41:48.829Z,12.60
2022-10-17T21:44:20.341Z,12.60
2022-10-17T21:46:48.034Z,12.50
2022-10-17T21:49:18.604Z,12.50
2022-10-17T21:51:47.687Z,12.46
2022-10-17T21:54:16.527Z,12.40
2022-10-17T21:56:43.746Z,12.40
2022-10-17T21:59:11.599Z,12.40
2022-10-17T22:01:41.882Z,12.40
2022-10-17T22:04:13.951Z,12.30
2022-10-17T22:06:43.310Z,12.30
2022-10-17T22:09:16.277Z,12.30
2022-10-17T22:11:48.338Z,12.30
2022-10-17T22:14:18.955Z,12.26
2022-10-17T22:16:47.602Z,12.20
2022-10-17T22:19:22.059Z,12.20
2022-10-17T22:21:49.723Z,12.20
2022-10-17T22:26:51.817Z,12.14
2022-10-17T22:29:19.070Z,12.10
2022-10-17T22:31:45.996Z,12.10
2022-10-17T22:34:15.832Z,12.10
2022-10-17T22:36:43.487Z,12.10
2022-10-17T22:39:11.452Z,12.10
2022-10-17T22:41:38.403Z,12.10
2022-10-17T22:44:06.775Z,12.10
2022-10-17T22:46:33.912Z,12.10
2022-10-17T22:49:00.899Z,12.10
2022-10-17T22:51:28.158Z,12.10
2022-10-17T22:53:55.058Z,12.10
2022-10-17T22:56:23.938Z,12.10
2022-10-17T22:58:51.786Z,12.04
2022-10-17T23:01:23.317Z,12.00
2022-10-17T23:03:52.030Z,12.00
2022-10-17T23:06:20.105Z,11.98
2022-10-17T23:08:47.182Z,11.90
2022-10-17T23:11:14.524Z,11.80
2022-10-17T23:13:41.465Z,11.80
2022-10-17T23:16:09.419Z,11.70
2022-10-17T23:18:37.385Z,11.70
2022-10-17T23:21:04.552Z,11.64
2022-10-17T23:23:31.410Z,11.60
2022-10-17T23:26:14.125Z,11.60
2022-10-17T23:28:43.249Z,11.60
2022-10-17T23:31:17.399Z,11.60
2022-10-17T23:33:46.713Z,11.60
2022-10-17T23:36:16.555Z,11.60
2022-10-17T23:38:45.626Z,11.60
2022-10-17T23:41:13.989Z,11.60
2022-10-17T23:43:41.375Z,11.60
2022-10-17T23:46:09.650Z,11.60
2022-10-17T23:48:37.390Z,11.60
2022-10-17T23:51:06.079Z,11.60
2022-10-17T23:53:32.941Z,11.60
2022-10-17T23:55:59.886Z,11.52
2022-10-17T23:58:26.722Z,11.50
